Time;durP1;ratioP1;P1;durP2;ratioP2;P2;SDS_P1;SDS_P2;PMS_P1;PMS_P2;Temp;Humidity;BMP_temperature;BMP_pressure;BME280_temperature;BME280_humidity;BME280_pressure;Samples;Min_cycle;Max_cycle;Signal;HPM_P1;HPM_P2
2022/11/30 00:00:57;;;;;;;44.70;26.63;;;4.60;99.90;;;;;;5061168;28;20915;-69
2022/11/30 00:03:24;;;;;;;50.10;30.47;;;4.60;99.90;;;;;;5056774;28;20421;-69
2022/11/30 00:05:50;;;;;;;52.50;28.40;;;4.60;99.90;;;;;;5043006;28;20253;-69
2022/11/30 00:08:16;;;;;;;53.80;28.87;;;4.60;99.90;;;;;;5061693;28;20595;-69
2022/11/30 00:10:42;;;;;;;51.70;26.93;;;4.60;99.90;;;;;;5060329;28;20502;-72
2022/11/30 00:13:08;;;;;;;48.03;28.23;;;4.70;99.90;;;;;;5059510;28;20429;-68
2022/11/30 00:15:38;;;;;;;54.23;31.20;;;4.70;99.90;;;;;;5058506;28;20491;-69
2022/11/30 00:18:03;;;;;;;52.87;29.90;;;4.60;99.90;;;;;;5059845;28;20501;-69
2022/11/30 00:20:29;;;;;;;48.57;26.57;;;4.60;99.90;;;;;;5056057;28;20885;-68
2022/11/30 00:22:56;;;;;;;51.63;28.37;;;4.60;99.90;;;;;;5059538;28;20433;-69
2022/11/30 00:25:22;;;;;;;50.40;28.07;;;4.50;99.90;;;;;;5043433;28;20233;-68
2022/11/30 00:27:48;;;;;;;46.20;28.03;;;4.50;99.90;;;;;;5059577;28;20527;-69
2022/11/30 00:30:14;;;;;;;43.70;28.13;;;4.50;99.90;;;;;;5059883;28;20517;-69
2022/11/30 00:32:40;;;;;;;51.20;30.47;;;4.50;99.90;;;;;;5058283;28;20312;-69
2022/11/30 00:35:05;;;;;;;52.30;29.13;;;4.60;99.90;;;;;;5059591;28;20955;-70
2022/11/30 00:37:32;;;;;;;52.10;29.07;;;4.60;99.90;;;;;;5061520;28;20175;-70
2022/11/30 00:39:58;;;;;;;53.03;27.97;;;4.60;99.90;;;;;;5065879;28;20164;-69
2022/11/30 00:42:24;;;;;;;43.47;27.40;;;4.60;99.90;;;;;;5060148;28;20428;-70
2022/11/30 00:44:49;;;;;;;47.63;28.23;;;4.60;99.90;;;;;;5056526;28;20501;-70
2022/11/30 00:47:15;;;;;;;49.37;30.67;;;4.50;99.90;;;;;;5059322;28;20172;-70
2022/11/30 00:49:40;;;;;;;50.13;26.97;;;4.60;99.90;;;;;;5055546;28;20194;-69
2022/11/30 00:52:06;;;;;;;46.30;26.67;;;4.60;99.90;;;;;;5057304;28;20191;-69
2022/11/30 00:54:32;;;;;;;50.03;30.40;;;4.60;99.90;;;;;;5061851;28;20159;-70
2022/11/30 00:56:58;;;;;;;53.30;28.80;;;4.60;99.90;;;;;;5057307;28;20459;-69
2022/11/30 00:59:23;;;;;;;51.70;27.93;;;4.60;99.90;;;;;;5059806;28;20175;-70
2022/11/30 01:01:49;;;;;;;48.30;29.47;;;4.60;99.90;;;;;;5056316;28;20232;-70
2022/11/30 01:04:14;;;;;;;46.70;26.53;;;4.60;99.90;;;;;;5059021;28;20316;-70
2022/11/30 01:06:40;;;;;;;43.10;27.50;;;4.50;99.90;;;;;;5055383;28;20308;-70
2022/11/30 01:09:05;;;;;;;52.17;29.50;;;4.60;99.90;;;;;;5057593;28;20598;-70
2022/11/30 01:11:31;;;;;;;51.77;29.27;;;4.50;99.90;;;;;;5061551;28;20282;-70
2022/11/30 01:13:58;;;;;;;45.90;26.93;;;4.50;99.90;;;;;;5057261;28;20213;-70
2022/11/30 01:16:27;;;;;;;53.27;29.70;;;4.60;99.90;;;;;;5056894;28;20194;-69
2022/11/30 01:18:53;;;;;;;48.17;27.67;;;4.50;99.90;;;;;;5056609;28;20417;-70
2022/11/30 01:21:21;;;;;;;48.60;26.77;;;4.50;99.90;;;;;;5050300;28;20472;-69
2022/11/30 01:23:46;;;;;;;55.40;28.50;;;4.50;99.90;;;;;;5054821;28;20265;-70
2022/11/30 01:26:12;;;;;;;47.53;27.47;;;4.50;99.90;;;;;;5051197;28;20501;-69
2022/11/30 01:28:44;;;;;;;49.17;29.50;;;4.40;99.90;;;;;;5061645;28;20245;-69
2022/11/30 01:31:13;;;;;;;53.43;29.67;;;4.50;99.90;;;;;;5056262;28;20871;-70
2022/11/30 01:33:40;;;;;;;50.43;28.60;;;4.40;99.90;;;;;;5059773;28;20501;-70
2022/11/30 01:36:15;;;;;;;54.10;28.03;;;4.40;99.90;;;;;;5055491;28;20401;-69
2022/11/30 01:38:47;;;;;;;50.57;30.27;;;4.40;99.90;;;;;;5057823;28;20420;-69
2022/11/30 01:41:16;;;;;;;53.03;29.10;;;4.40;99.90;;;;;;5060118;28;20901;-70
2022/11/30 01:43:47;;;;;;;42.37;27.70;;;4.40;99.90;;;;;;5054353;28;20433;-70
2022/11/30 01:46:39;;;;;;;64.43;30.67;;;4.30;99.90;;;;;;5058789;28;20405;-69
2022/11/30 01:49:10;;;;;;;50.90;28.87;;;4.40;99.90;;;;;;5044524;28;20514;-68
2022/11/30 01:51:41;;;;;;;46.07;29.77;;;4.40;99.90;;;;;;5059272;28;20464;-70
2022/11/30 01:54:10;;;;;;;46.30;26.30;;;4.30;99.90;;;;;;5059408;28;20415;-70
2022/11/30 01:56:39;;;;;;;54.23;30.10;;;4.40;99.90;;;;;;5058171;28;20412;-70
2022/11/30 01:59:04;;;;;;;50.37;28.87;;;4.40;99.90;;;;;;5066406;28;20983;-69
2022/11/30 02:01:30;;;;;;;56.43;29.57;;;4.40;99.90;;;;;;5053947;28;20539;-69
2022/11/30 02:04:02;;;;;;;48.20;28.60;;;4.40;99.90;;;;;;5068652;28;20178;-70
2022/11/30 02:06:28;;;;;;;46.50;27.43;;;4.40;99.90;;;;;;5054108;28;20509;-69
2022/11/30 02:08:54;;;;;;;49.83;28.93;;;4.40;99.90;;;;;;5057116;28;20452;-68
2022/11/30 02:11:21;;;;;;;60.17;29.50;;;4.40;99.90;;;;;;5058955;28;20799;-69
2022/11/30 02:13:58;;;;;;;49.77;29.10;;;4.40;99.90;;;;;;5057421;28;20412;-70
2022/11/30 02:17:09;;;;;;;46.93;27.57;;;4.40;99.90;;;;;;5057464;28;20457;-70
2022/11/30 02:19:55;;;;;;;52.67;29.77;;;4.40;99.90;;;;;;4982925;28;20510;-70
2022/11/30 02:22:53;;;;;;;50.63;28.40;;;4.40;99.90;;;;;;5046143;28;20774;-70
2022/11/30 02:25:27;;;;;;;46.10;25.87;;;4.40;99.90;;;;;;5053561;28;20486;-70
2022/11/30 02:28:17;;;;;;;47.73;28.43;;;4.40;99.90;;;;;;5059844;28;20455;-70
2022/11/30 02:30:48;;;;;;;43.53;27.07;;;4.40;99.90;;;;;;5057807;28;20436;-70
2022/11/30 02:33:22;;;;;;;54.90;31.03;;;4.40;99.90;;;;;;5062133;28;20401;-70
2022/11/30 02:35:50;;;;;;;54.67;28.53;;;4.40;99.90;;;;;;5057831;28;20432;-70
2022/11/30 02:38:20;;;;;;;50.70;30.43;;;4.40;99.90;;;;;;5058065;28;20445;-70
2022/11/30 02:40:46;;;;;;;56.50;29.90;;;4.40;99.90;;;;;;5062611;28;20437;-70
2022/11/30 02:43:12;;;;;;;57.27;31.67;;;4.40;99.90;;;;;;5067308;28;20421;-70
2022/11/30 02:45:59;;;;;;;60.57;28.17;;;4.40;99.90;;;;;;5061371;28;20198;-69
2022/11/30 02:48:49;;;;;;;48.97;28.70;;;4.40;99.90;;;;;;5054466;28;20797;-69
2022/11/30 02:51:21;;;;;;;47.17;26.73;;;4.40;99.90;;;;;;5051185;28;20429;-70
2022/11/30 02:53:47;;;;;;;49.40;28.60;;;4.40;99.90;;;;;;5058133;28;20396;-69
2022/11/30 02:56:13;;;;;;;54.83;30.33;;;4.40;99.90;;;;;;5053750;28;20402;-69
2022/11/30 02:58:39;;;;;;;50.83;28.00;;;4.50;99.90;;;;;;5060394;28;20396;-70
2022/11/30 03:01:05;;;;;;;52.20;30.67;;;4.50;99.90;;;;;;5051471;28;20437;-68
2022/11/30 03:03:30;;;;;;;50.00;29.57;;;4.40;99.90;;;;;;5059368;28;20455;-69
2022/11/30 03:05:56;;;;;;;49.93;30.03;;;4.40;99.90;;;;;;5052265;28;20177;-69
2022/11/30 03:08:22;;;;;;;54.53;29.03;;;4.40;99.90;;;;;;5052658;28;20190;-70
2022/11/30 03:10:47;;;;;;;54.27;27.90;;;4.30;99.90;;;;;;5057576;28;20198;-69
2022/11/30 03:13:13;;;;;;;42.07;28.07;;;4.30;99.90;;;;;;5053184;28;20409;-69
2022/11/30 03:15:39;;;;;;;45.73;27.73;;;4.30;99.90;;;;;;5059419;28;20162;-70
2022/11/30 03:18:04;;;;;;;50.60;29.77;;;4.30;99.90;;;;;;5051457;28;20736;-69
2022/11/30 03:20:30;;;;;;;47.37;27.30;;;4.30;99.90;;;;;;5058796;28;20209;-70
2022/11/30 03:23:02;;;;;;;56.00;28.83;;;4.30;99.90;;;;;;5050984;28;20177;-70
2022/11/30 03:25:28;;;;;;;58.17;29.43;;;4.30;99.90;;;;;;5051743;28;20182;-70
2022/11/30 03:27:54;;;;;;;52.73;28.87;;;4.30;99.90;;;;;;5057666;28;20544;-71
2022/11/30 03:30:20;;;;;;;55.63;31.20;;;4.40;99.90;;;;;;5053457;28;20504;-72
2022/11/30 03:32:45;;;;;;;53.90;28.70;;;4.30;99.90;;;;;;5058863;28;20664;-70
2022/11/30 03:35:11;;;;;;;51.80;27.87;;;4.40;99.90;;;;;;5051478;28;20458;-69
2022/11/30 03:37:36;;;;;;;51.93;30.60;;;4.30;99.90;;;;;;5059331;28;20171;-70
2022/11/30 03:40:03;;;;;;;47.70;30.50;;;4.30;99.90;;;;;;5054223;28;20175;-71
2022/11/30 03:42:29;;;;;;;46.23;27.33;;;4.30;99.90;;;;;;5056153;28;20203;-70
2022/11/30 03:44:54;;;;;;;55.03;29.53;;;4.30;99.90;;;;;;5053355;28;20413;-70
2022/11/30 03:47:20;;;;;;;52.60;28.47;;;4.30;99.90;;;;;;5056162;28;20614;-69
2022/11/30 03:49:45;;;;;;;53.33;29.50;;;4.30;99.90;;;;;;5052804;28;20221;-70
2022/11/30 03:52:11;;;;;;;54.00;30.50;;;4.30;99.90;;;;;;5055229;28;20286;-69
2022/11/30 03:54:37;;;;;;;55.13;26.10;;;4.30;99.90;;;;;;5048960;28;20258;-69
2022/11/30 03:57:02;;;;;;;52.50;31.07;;;4.20;99.90;;;;;;5049042;28;20171;-70
2022/11/30 03:59:28;;;;;;;52.30;29.20;;;4.30;99.90;;;;;;5049765;28;20244;-69
2022/11/30 04:01:53;;;;;;;52.43;30.03;;;4.30;99.90;;;;;;5049738;28;20213;-69
2022/11/30 04:04:19;;;;;;;52.83;28.13;;;4.20;99.90;;;;;;5049891;28;20225;-70
2022/11/30 04:06:45;;;;;;;50.57;27.47;;;4.20;99.90;;;;;;5049919;28;20178;-70
2022/11/30 04:09:10;;;;;;;53.20;27.63;;;4.20;99.90;;;;;;5049817;28;20248;-70
2022/11/30 04:11:36;;;;;;;48.23;27.83;;;4.20;99.90;;;;;;5049710;28;20187;-71
2022/11/30 04:14:01;;;;;;;53.27;28.87;;;4.20;99.90;;;;;;5048948;28;20602;-70
2022/11/30 04:16:27;;;;;;;55.30;29.67;;;4.20;99.90;;;;;;5049874;28;20313;-70
2022/11/30 04:18:52;;;;;;;58.73;29.03;;;4.20;99.90;;;;;;5045951;28;20775;-71
2022/11/30 04:21:18;;;;;;;50.63;28.93;;;4.10;99.90;;;;;;5043894;28;20600;-68
2022/11/30 04:23:44;;;;;;;49.50;27.33;;;4.10;99.90;;;;;;5049577;28;20198;-70
2022/11/30 04:26:15;;;;;;;53.60;29.07;;;4.10;99.90;;;;;;5031815;28;20237;-69
2022/11/30 04:28:41;;;;;;;52.10;31.23;;;4.10;99.90;;;;;;5052139;28;20186;-69
2022/11/30 04:31:07;;;;;;;54.47;28.40;;;4.10;99.90;;;;;;5051061;28;20495;-69
2022/11/30 04:33:32;;;;;;;51.60;29.47;;;4.10;99.90;;;;;;5051981;28;20405;-69
2022/11/30 04:36:01;;;;;;;46.70;28.10;;;4.10;99.90;;;;;;5052999;28;20914;-69
2022/11/30 04:38:28;;;;;;;47.20;28.37;;;4.10;99.90;;;;;;5053011;28;20773;-71
2022/11/30 04:40:54;;;;;;;52.57;28.00;;;4.10;99.90;;;;;;5053092;28;20461;-70
2022/11/30 04:43:20;;;;;;;60.67;30.70;;;4.10;99.90;;;;;;5053056;28;20962;-70
2022/11/30 04:45:46;;;;;;;52.07;29.40;;;4.10;99.90;;;;;;5052958;28;20422;-69
2022/11/30 04:48:13;;;;;;;54.03;30.07;;;4.10;99.90;;;;;;5052110;28;20479;-69
2022/11/30 04:50:38;;;;;;;52.47;29.50;;;4.10;99.90;;;;;;5052633;28;20532;-70
2022/11/30 04:53:04;;;;;;;52.33;26.83;;;4.10;99.90;;;;;;5053100;28;20496;-69
2022/11/30 04:55:30;;;;;;;53.50;29.90;;;4.10;99.90;;;;;;5052729;28;20611;-69
2022/11/30 04:57:55;;;;;;;53.37;30.37;;;4.10;99.90;;;;;;5052998;28;20244;-70
2022/11/30 05:00:21;;;;;;;47.40;26.23;;;4.10;99.90;;;;;;5053407;28;20167;-70
2022/11/30 05:02:47;;;;;;;53.13;30.50;;;4.00;99.90;;;;;;5050712;28;20175;-69
2022/11/30 05:05:12;;;;;;;53.20;29.90;;;4.00;99.90;;;;;;5051694;28;20197;-70
2022/11/30 05:07:39;;;;;;;51.07;28.30;;;4.00;99.90;;;;;;5027588;28;20657;-69
2022/11/30 05:10:06;;;;;;;51.03;28.67;;;4.00;99.90;;;;;;5048374;28;20513;-70
2022/11/30 05:12:32;;;;;;;52.93;27.63;;;4.00;99.90;;;;;;5048456;28;20844;-69
2022/11/30 05:14:58;;;;;;;49.80;29.53;;;4.00;99.90;;;;;;5052278;28;20409;-70
2022/11/30 05:17:23;;;;;;;52.33;29.00;;;4.00;99.90;;;;;;5052576;28;20197;-68
2022/11/30 05:19:49;;;;;;;52.10;28.63;;;4.00;99.90;;;;;;5052137;28;21075;-69
2022/11/30 05:22:14;;;;;;;59.20;29.17;;;4.00;99.90;;;;;;5051448;28;20209;-70
2022/11/30 05:24:40;;;;;;;46.67;29.17;;;4.00;99.90;;;;;;5052559;28;20673;-70
2022/11/30 05:27:06;;;;;;;57.10;31.67;;;4.00;99.90;;;;;;5052331;28;20178;-69
2022/11/30 05:29:33;;;;;;;47.43;30.90;;;4.00;99.90;;;;;;5052895;28;20203;-69
2022/11/30 05:32:00;;;;;;;52.17;29.53;;;3.90;99.90;;;;;;5058400;23;20486;-64
2022/11/30 05:34:25;;;;;;;53.63;27.30;;;4.00;99.90;;;;;;5033219;28;20418;-65
2022/11/30 05:36:51;;;;;;;59.00;29.50;;;4.00;99.90;;;;;;5024834;28;20434;-65
2022/11/30 05:39:17;;;;;;;53.07;28.30;;;3.90;99.90;;;;;;5032842;28;20186;-66
2022/11/30 05:41:42;;;;;;;52.97;30.10;;;3.90;99.90;;;;;;5033095;28;20286;-66
2022/11/30 05:44:08;;;;;;;49.97;29.83;;;3.90;99.90;;;;;;5033556;28;20192;-66
2022/11/30 05:46:34;;;;;;;52.70;28.20;;;4.00;99.90;;;;;;5033282;28;20187;-66
2022/11/30 05:48:59;;;;;;;48.67;28.47;;;4.00;99.90;;;;;;5032717;28;20462;-66
2022/11/30 05:51:25;;;;;;;50.63;29.43;;;4.00;99.90;;;;;;5032941;28;20195;-65
2022/11/30 05:53:51;;;;;;;51.40;29.93;;;4.00;99.90;;;;;;5032003;28;20490;-65
2022/11/30 05:56:18;;;;;;;49.57;29.10;;;4.00;99.90;;;;;;5033011;28;20410;-66
2022/11/30 05:58:45;;;;;;;43.13;26.50;;;4.00;99.90;;;;;;5033003;28;20179;-66
2022/11/30 06:01:21;;;;;;;55.27;31.60;;;4.00;99.90;;;;;;5032709;28;20417;-66
2022/11/30 06:03:47;;;;;;;47.20;29.07;;;4.00;99.90;;;;;;5032482;28;20919;-66
2022/11/30 06:06:13;;;;;;;58.60;29.10;;;4.00;99.90;;;;;;5032532;28;20418;-66
2022/11/30 06:08:38;;;;;;;57.93;31.60;;;4.00;99.90;;;;;;5032358;28;20454;-66
2022/11/30 06:11:04;;;;;;;53.33;28.27;;;4.00;99.90;;;;;;5027200;28;20179;-65
2022/11/30 06:13:33;;;;;;;47.20;27.87;;;4.00;99.90;;;;;;5032801;28;20530;-65
2022/11/30 06:15:59;;;;;;;59.07;28.87;;;4.00;99.90;;;;;;5032386;28;20176;-66
2022/11/30 06:18:25;;;;;;;50.10;28.00;;;4.00;99.90;;;;;;5032704;28;20479;-66
2022/11/30 06:20:50;;;;;;;50.17;31.30;;;4.00;99.90;;;;;;5032210;28;20406;-65
2022/11/30 06:23:16;;;;;;;48.73;28.17;;;4.00;99.90;;;;;;5032130;28;20195;-66
2022/11/30 06:25:41;;;;;;;49.60;30.53;;;4.00;99.90;;;;;;5032189;28;20186;-65
2022/11/30 06:28:08;;;;;;;52.30;29.60;;;4.00;99.90;;;;;;5031352;28;20195;-65
2022/11/30 06:30:34;;;;;;;50.07;27.73;;;4.00;99.90;;;;;;5032224;28;20262;-66
2022/11/30 06:33:00;;;;;;;50.30;29.43;;;4.00;99.90;;;;;;5028914;28;20477;-65
2022/11/30 06:35:25;;;;;;;52.33;30.97;;;4.00;99.90;;;;;;5032201;28;20225;-65
2022/11/30 06:37:51;;;;;;;54.67;30.73;;;4.10;99.90;;;;;;5032120;28;20176;-65
2022/11/30 06:40:16;;;;;;;51.60;29.77;;;4.10;99.90;;;;;;5031990;28;20168;-66
2022/11/30 06:42:42;;;;;;;53.20;29.27;;;4.10;99.90;;;;;;5031937;28;20226;-66
2022/11/30 06:45:08;;;;;;;46.13;24.93;;;4.00;99.90;;;;;;5031026;28;20176;-66
2022/11/30 06:47:34;;;;;;;54.90;27.40;;;4.10;99.90;;;;;;5030925;28;20259;-66
2022/11/30 06:49:59;;;;;;;43.77;27.80;;;4.00;99.90;;;;;;5028293;28;20552;-65
2022/11/30 06:52:25;;;;;;;57.73;30.40;;;4.00;99.90;;;;;;5031544;28;20199;-66
2022/11/30 06:54:50;;;;;;;52.40;29.70;;;4.00;99.90;;;;;;5031971;28;20701;-65
2022/11/30 06:57:16;;;;;;;57.10;30.97;;;4.00;99.90;;;;;;5031804;28;20175;-66
2022/11/30 06:59:42;;;;;;;54.50;28.40;;;4.10;99.90;;;;;;5031522;28;20542;-65
2022/11/30 07:02:11;;;;;;;51.83;29.17;;;4.10;99.90;;;;;;5026054;28;20196;-66
2022/11/30 07:04:37;;;;;;;52.83;27.97;;;4.10;99.90;;;;;;5031588;28;20943;-66
2022/11/30 07:07:03;;;;;;;49.10;28.80;;;4.10;99.90;;;;;;5027768;28;20442;-66
2022/11/30 07:09:31;;;;;;;48.63;27.40;;;4.10;99.90;;;;;;5031376;28;20711;-67
2022/11/30 07:11:57;;;;;;;50.43;26.13;;;4.10;99.90;;;;;;5031301;28;20502;-66
2022/11/30 07:14:22;;;;;;;55.77;29.70;;;4.10;99.90;;;;;;5031420;28;20505;-65
2022/11/30 07:16:48;;;;;;;46.30;26.43;;;4.10;99.90;;;;;;5030120;28;20982;-65
2022/11/30 07:19:13;;;;;;;51.10;28.73;;;4.10;99.90;;;;;;5031204;28;20237;-65
2022/11/30 07:21:39;;;;;;;46.90;26.63;;;4.10;99.90;;;;;;5031157;28;20207;-64
2022/11/30 07:26:49;;;;;;;46.37;26.20;;;4.10;99.90;;;;;;5031139;28;20190;-65
2022/11/30 07:29:14;;;;;;;48.73;28.10;;;4.10;99.90;;;;;;5031070;28;20958;-68
2022/11/30 07:31:40;;;;;;;45.83;27.70;;;4.10;99.90;;;;;;5031837;28;20280;-65
2022/11/30 07:34:08;;;;;;;52.60;26.03;;;4.10;99.90;;;;;;5030855;28;20187;-66
2022/11/30 07:36:34;;;;;;;45.40;25.90;;;4.10;99.90;;;;;;5031296;28;20202;-66
2022/11/30 07:39:00;;;;;;;49.80;27.93;;;4.20;99.90;;;;;;5029483;28;20431;-66
2022/11/30 07:41:26;;;;;;;56.00;29.03;;;4.20;99.90;;;;;;5027078;28;20759;-66
2022/11/30 07:43:51;;;;;;;46.93;28.23;;;4.20;99.90;;;;;;5031117;28;20418;-66
2022/11/30 07:46:17;;;;;;;56.80;28.53;;;4.20;99.90;;;;;;5025083;28;20176;-66
2022/11/30 07:48:44;;;;;;;45.93;26.57;;;4.20;99.90;;;;;;5029974;28;20508;-66
2022/11/30 07:51:13;;;;;;;47.63;28.57;;;4.30;99.90;;;;;;5030052;28;20186;-66
2022/11/30 07:53:39;;;;;;;55.50;27.77;;;4.20;99.90;;;;;;5031082;28;20422;-66
2022/11/30 07:56:09;;;;;;;46.80;27.53;;;4.20;99.90;;;;;;5023561;28;21086;-66
2022/11/30 07:58:35;;;;;;;42.80;25.60;;;4.20;99.90;;;;;;5030976;28;20333;-66
2022/11/30 08:01:15;;;;;;;44.43;28.40;;;4.30;99.90;;;;;;5031566;28;20514;-66
2022/11/30 08:03:41;;;;;;;41.37;26.47;;;4.30;99.90;;;;;;5034894;28;20278;-66
2022/11/30 08:06:12;;;;;;;48.17;26.53;;;4.40;99.90;;;;;;5034939;28;20799;-66
2022/11/30 08:08:41;;;;;;;46.37;24.63;;;4.40;99.90;;;;;;5033776;28;20469;-66
2022/11/30 08:11:08;;;;;;;43.63;26.23;;;4.40;99.90;;;;;;5034783;28;20482;-65
2022/11/30 08:13:34;;;;;;;47.20;26.77;;;4.40;99.90;;;;;;5032207;28;20420;-66
2022/11/30 08:16:04;;;;;;;46.00;25.33;;;4.40;99.90;;;;;;5034418;28;20410;-66
2022/11/30 08:18:30;;;;;;;49.93;27.63;;;4.40;99.90;;;;;;5034945;28;20450;-66
2022/11/30 08:20:57;;;;;;;51.60;28.00;;;4.40;99.90;;;;;;5034305;28;20850;-66
2022/11/30 08:23:23;;;;;;;44.90;26.90;;;4.40;99.90;;;;;;5028961;28;20207;-66
2022/11/30 08:25:48;;;;;;;40.40;26.73;;;4.40;99.90;;;;;;5032874;28;20904;-66
2022/11/30 08:28:14;;;;;;;46.43;28.83;;;4.40;99.90;;;;;;5034417;28;20208;-66
2022/11/30 08:30:39;;;;;;;41.77;26.43;;;4.40;99.90;;;;;;5034376;28;20266;-66
2022/11/30 08:33:05;;;;;;;49.43;27.07;;;4.40;99.90;;;;;;5034769;28;20212;-66
2022/11/30 08:35:30;;;;;;;52.33;29.10;;;4.50;99.90;;;;;;5034719;28;20566;-65
2022/11/30 08:37:56;;;;;;;44.37;25.73;;;4.50;99.90;;;;;;5034887;28;20194;-65
2022/11/30 08:40:21;;;;;;;42.43;25.20;;;4.60;99.90;;;;;;5033511;28;20573;-65
2022/11/30 08:42:47;;;;;;;59.37;27.77;;;4.60;99.90;;;;;;5034141;28;20198;-65
2022/11/30 08:45:13;;;;;;;43.67;29.97;;;4.60;99.90;;;;;;5033936;28;20206;-66
2022/11/30 08:47:38;;;;;;;48.23;27.90;;;4.60;99.90;;;;;;5027343;28;20618;-66
2022/11/30 08:50:04;;;;;;;44.67;27.13;;;4.60;99.90;;;;;;5033933;28;20282;-65
2022/11/30 08:52:30;;;;;;;45.43;25.43;;;4.60;99.90;;;;;;5034000;28;20688;-65
2022/11/30 08:54:55;;;;;;;45.93;27.00;;;4.60;99.90;;;;;;5033947;28;20411;-65
2022/11/30 08:57:21;;;;;;;47.40;26.60;;;4.70;99.90;;;;;;5026223;28;20645;-65
2022/11/30 08:59:47;;;;;;;48.43;26.13;;;4.70;99.90;;;;;;5033866;28;20643;-65
2022/11/30 09:02:18;;;;;;;42.40;25.40;;;4.70;99.90;;;;;;5034040;28;20437;-67
2022/11/30 09:04:46;;;;;;;45.57;28.10;;;4.80;99.90;;;;;;5034168;28;20432;-65
2022/11/30 09:07:12;;;;;;;44.50;26.07;;;4.80;99.90;;;;;;5034020;28;20449;-66
2022/11/30 09:09:38;;;;;;;39.57;23.30;;;4.80;99.90;;;;;;5033868;28;20454;-66
2022/11/30 09:12:05;;;;;;;42.93;24.50;;;4.80;99.90;;;;;;5034026;28;20440;-66
2022/11/30 09:14:30;;;;;;;54.93;28.37;;;4.90;99.90;;;;;;5032399;28;20187;-66
2022/11/30 09:16:56;;;;;;;47.67;25.97;;;4.80;99.90;;;;;;5034100;28;20480;-65
2022/11/30 09:19:21;;;;;;;48.93;27.60;;;4.80;99.90;;;;;;5033909;28;20655;-66
2022/11/30 09:21:47;;;;;;;44.50;26.63;;;4.80;99.90;;;;;;5034578;28;20215;-66
2022/11/30 09:24:13;;;;;;;45.70;27.37;;;4.70;99.90;;;;;;5034074;28;20179;-65
2022/11/30 09:26:40;;;;;;;43.63;25.10;;;4.80;99.90;;;;;;5033419;28;20263;-65
2022/11/30 09:29:06;;;;;;;46.60;26.03;;;4.90;99.90;;;;;;5033714;28;20249;-65
2022/11/30 09:31:31;;;;;;;47.70;26.30;;;5.00;99.90;;;;;;5032731;28;20466;-66
2022/11/30 09:33:57;;;;;;;42.57;25.47;;;5.10;99.90;;;;;;5028640;28;20271;-65
2022/11/30 09:36:26;;;;;;;44.50;28.23;;;5.00;99.90;;;;;;5032869;28;20233;-65
2022/11/30 09:38:52;;;;;;;45.47;26.40;;;5.10;99.90;;;;;;5033120;28;20426;-65
2022/11/30 09:41:33;;;;;;;42.57;24.80;;;5.10;99.90;;;;;;5033360;28;20458;-65
2022/11/30 09:44:07;;;;;;;40.93;24.60;;;5.10;99.90;;;;;;5031751;28;20398;-65
2022/11/30 09:46:52;;;;;;;48.57;26.20;;;5.10;99.90;;;;;;5025869;28;20438;-65
2022/11/30 09:49:26;;;;;;;44.87;24.73;;;5.20;99.90;;;;;;5030162;28;20473;-65
2022/11/30 09:51:57;;;;;;;42.60;24.40;;;5.10;99.90;;;;;;5032774;28;20434;-65
2022/11/30 09:54:43;;;;;;;44.30;25.57;;;5.10;99.90;;;;;;5033090;28;20491;-66
2022/11/30 09:57:32;;;;;;;40.03;26.43;;;5.10;99.90;;;;;;5019937;28;20433;-66
2022/11/30 10:00:20;;;;;;;42.00;25.90;;;5.20;99.90;;;;;;5032316;28;20414;-66
2022/11/30 10:02:48;;;;;;;47.53;25.90;;;5.30;99.90;;;;;;5031076;28;20453;-67
2022/11/30 10:05:40;;;;;;;40.33;22.83;;;5.20;99.90;;;;;;5028796;28;20512;-66
2022/11/30 10:08:20;;;;;;;44.37;24.13;;;5.30;99.90;;;;;;5026091;28;20823;-65
2022/11/30 10:11:09;;;;;;;40.60;24.27;;;5.40;99.90;;;;;;5032633;28;20434;-65
2022/11/30 10:13:46;;;;;;;38.90;23.80;;;5.50;99.90;;;;;;5033021;28;20939;-65
2022/11/30 10:16:33;;;;;;;42.73;25.27;;;5.50;99.90;;;;;;5027848;28;20464;-65
2022/11/30 10:19:22;;;;;;;44.00;25.20;;;5.50;99.90;;;;;;5033405;28;20407;-65
2022/11/30 10:21:58;;;;;;;43.23;23.37;;;5.50;99.90;;;;;;5032868;28;20484;-65
2022/11/30 10:24:52;;;;;;;48.10;26.87;;;5.70;99.90;;;;;;5030997;28;20432;-66
2022/11/30 10:27:37;;;;;;;47.73;25.00;;;5.70;99.90;;;;;;5032670;28;20406;-66
2022/11/30 10:30:13;;;;;;;47.07;25.70;;;5.70;99.90;;;;;;5033064;28;20477;-65
2022/11/30 10:32:40;;;;;;;42.07;25.83;;;5.60;99.90;;;;;;5032190;28;20461;-64
2022/11/30 10:35:36;;;;;;;48.50;27.87;;;5.70;99.90;;;;;;5032287;28;20422;-65
2022/11/30 10:38:33;;;;;;;45.83;26.37;;;5.80;99.90;;;;;;5031578;28;21055;-65
2022/11/30 10:41:13;;;;;;;53.80;29.57;;;5.80;99.90;;;;;;5032078;28;20480;-67
2022/11/30 10:43:48;;;;;;;47.00;24.43;;;5.90;99.90;;;;;;5034783;28;20886;-66
2022/11/30 10:46:21;;;;;;;40.77;26.10;;;6.00;99.90;;;;;;5017397;28;20446;-66
2022/11/30 10:48:53;;;;;;;36.13;23.93;;;6.00;99.90;;;;;;5022388;28;20549;-65
2022/11/30 10:51:19;;;;;;;44.10;25.37;;;5.90;99.90;;;;;;5025993;28;20421;-65
2022/11/30 10:53:45;;;;;;;43.23;26.30;;;5.80;99.90;;;;;;5026003;28;20494;-66
2022/11/30 10:56:13;;;;;;;41.50;24.77;;;5.80;99.90;;;;;;5026514;28;20572;-65
2022/11/30 10:59:01;;;;;;;50.33;26.90;;;5.90;99.90;;;;;;5025713;28;20422;-67
2022/11/30 11:01:33;;;;;;;41.93;24.23;;;6.00;99.90;;;;;;5019892;28;20827;-66
2022/11/30 11:04:12;;;;;;;43.13;29.30;;;5.90;99.90;;;;;;5025266;28;20423;-66
2022/11/30 11:06:58;;;;;;;41.53;24.40;;;6.00;99.90;;;;;;5025075;28;20484;-66
2022/11/30 11:09:39;;;;;;;45.50;27.53;;;6.00;99.90;;;;;;5024345;28;20462;-66
2022/11/30 11:12:25;;;;;;;41.20;25.10;;;6.00;99.90;;;;;;5020332;28;20442;-66
2022/11/30 11:15:17;;;;;;;51.10;26.47;;;6.00;99.90;;;;;;5020903;28;20916;-66
2022/11/30 11:17:42;;;;;;;45.07;23.87;;;6.00;99.90;;;;;;5024677;28;20407;-66
2022/11/30 11:20:29;;;;;;;43.20;27.00;;;6.00;99.90;;;;;;5025338;28;20434;-66
2022/11/30 11:22:55;;;;;;;41.17;25.23;;;6.10;99.90;;;;;;5022067;28;20273;-66
2022/11/30 11:25:24;;;;;;;46.37;25.83;;;6.10;99.90;;;;;;5023008;28;20959;-65
2022/11/30 11:27:52;;;;;;;45.90;23.90;;;6.00;99.90;;;;;;5021959;28;20419;-66
2022/11/30 11:30:29;;;;;;;43.83;25.57;;;6.00;99.90;;;;;;5025543;28;20414;-66
2022/11/30 11:33:11;;;;;;;54.33;28.20;;;5.90;99.90;;;;;;5024715;28;20458;-66
2022/11/30 11:35:48;;;;;;;42.37;25.70;;;6.00;99.90;;;;;;5020209;28;20418;-66
2022/11/30 11:38:23;;;;;;;45.77;29.23;;;6.00;99.90;;;;;;5023138;28;20436;-67
2022/11/30 11:40:52;;;;;;;41.23;26.50;;;6.00;99.90;;;;;;5026448;28;20437;-66
2022/11/30 11:43:17;;;;;;;43.10;27.50;;;6.00;99.90;;;;;;5021892;28;21117;-65
2022/11/30 11:45:51;;;;;;;44.57;26.47;;;6.10;99.90;;;;;;5019815;28;20419;-66
2022/11/30 11:48:55;;;;;;;41.33;25.37;;;6.20;99.90;;;;;;5016981;28;20199;-66
2022/11/30 11:51:30;;;;;;;50.93;25.50;;;6.10;99.90;;;;;;5023012;28;20976;-66
2022/11/30 11:54:00;;;;;;;40.40;26.63;;;6.10;99.90;;;;;;5028284;28;20423;-66
2022/11/30 11:56:32;;;;;;;46.03;27.30;;;6.00;99.90;;;;;;5025065;28;22068;-66
2022/11/30 11:59:04;;;;;;;41.60;26.13;;;5.90;99.90;;;;;;5022373;28;20836;-65
2022/11/30 12:01:45;;;;;;;50.30;26.50;;;6.00;99.90;;;;;;5023256;28;20536;-66
2022/11/30 12:04:32;;;;;;;43.50;25.10;;;6.00;99.90;;;;;;5028748;28;20825;-66
2022/11/30 12:07:01;;;;;;;42.40;24.47;;;6.00;99.90;;;;;;5028014;28;20441;-66
2022/11/30 12:09:32;;;;;;;51.90;30.63;;;5.90;99.90;;;;;;5019624;28;20509;-66
2022/11/30 12:11:58;;;;;;;50.70;27.87;;;6.00;99.90;;;;;;5021244;28;20446;-67
2022/11/30 12:14:25;;;;;;;43.37;27.73;;;6.00;99.90;;;;;;5023955;28;20418;-67
2022/11/30 12:17:27;;;;;;;48.33;26.70;;;6.10;99.90;;;;;;5025246;28;20417;-66
2022/11/30 12:20:04;;;;;;;46.03;28.07;;;5.90;99.90;;;;;;5024431;28;20402;-65
2022/11/30 12:22:53;;;;;;;56.43;28.10;;;5.90;99.90;;;;;;5020696;28;20430;-66
2022/11/30 12:25:39;;;;;;;50.80;28.77;;;5.90;99.90;;;;;;5025878;28;20437;-66
2022/11/30 12:28:21;;;;;;;53.57;27.20;;;5.90;99.90;;;;;;5024033;28;20419;-66
2022/11/30 12:31:01;;;;;;;53.70;28.00;;;6.00;99.90;;;;;;5021843;28;20441;-65
2022/11/30 12:33:39;;;;;;;49.70;30.37;;;6.00;99.90;;;;;;5016618;28;20463;-65
2022/11/30 12:36:23;;;;;;;52.70;31.63;;;5.90;99.90;;;;;;5019425;28;20449;-66
2022/11/30 12:39:04;;;;;;;49.70;27.40;;;5.90;99.90;;;;;;5026725;28;20472;-65
2022/11/30 12:41:37;;;;;;;51.83;31.07;;;5.80;99.90;;;;;;5027585;28;20517;-66
2022/11/30 12:44:15;;;;;;;61.60;30.77;;;5.80;99.90;;;;;;5028254;28;20429;-65
2022/11/30 12:46:54;;;;;;;59.73;31.90;;;5.70;99.90;;;;;;5027766;28;20422;-65
2022/11/30 12:49:38;;;;;;;54.93;35.10;;;5.70;99.90;;;;;;5015062;28;20545;-65
2022/11/30 12:52:15;;;;;;;69.07;33.90;;;5.60;99.90;;;;;;5025919;28;20564;-67